Time;durP1;ratioP1;P1;durP2;ratioP2;P2;SDS_P1;SDS_P2;PMS_P1;PMS_P2;Temp;Humidity;BMP_temperature;BMP_pressure;BME280_temperature;BME280_humidity;BME280_pressure;Samples;Min_cycle;Max_cycle;Signal;HPM_P1;HPM_P2
2022/09/04 00:01:43;;;;;;;;;10.00;8.25;;;;;;;;5105270;27;61766;-80
2022/09/04 00:04:09;;;;;;;;;9.00;9.00;;;;;;;;5105041;27;61650;-80
2022/09/04 00:06:41;;;;;;;;;10.75;8.00;;;;;;;;5104243;27;62029;-80
2022/09/04 00:09:11;;;;;;;;;10.75;9.50;;;;;;;;5103277;27;61971;-80
2022/09/04 00:11:43;;;;;;;;;10.00;7.50;;;;;;;;5103456;27;61954;-80
2022/09/04 00:14:20;;;;;;;;;10.25;7.00;;;;;;;;5104492;27;61943;-80
2022/09/04 00:16:54;;;;;;;;;7.75;7.75;;;;;;;;5103990;27;61903;-80
2022/09/04 00:19:24;;;;;;;;;10.00;8.00;;;;;;;;5104558;27;61635;-80
2022/09/04 00:21:57;;;;;;;;;8.75;8.00;;;;;;;;5104624;27;62014;-80
2022/09/04 00:24:43;;;;;;;;;7.50;7.50;;;;;;;;5104157;27;62011;-80
2022/09/04 00:27:12;;;;;;;;;7.00;7.00;;;;;;;;5103493;27;62265;-80
2022/09/04 00:29:40;;;;;;;;;11.00;8.00;;;;;;;;5102923;27;61769;-80
2022/09/04 00:32:10;;;;;;;;;14.25;8.75;;;;;;;;5104497;27;61924;-80
2022/09/04 00:34:42;;;;;;;;;9.50;8.50;;;;;;;;5103095;27;61793;-80
2022/09/04 00:37:12;;;;;;;;;6.50;6.25;;;;;;;;5104158;27;61834;-80
2022/09/04 00:40:12;;;;;;;;;9.75;8.00;;;;;;;;5102396;27;62079;-79
2022/09/04 00:42:44;;;;;;;;;8.50;7.50;;;;;;;;5060908;28;62069;-80
2022/09/04 00:45:18;;;;;;;;;8.00;8.00;;;;;;;;5061334;28;62148;-80
2022/09/04 00:47:43;;;;;;;;;8.00;8.00;;;;;;;;5060205;28;63113;-80
2022/09/04 00:50:27;;;;;;;;;7.75;5.50;;;;;;;;5060884;28;61935;-79
2022/09/04 00:53:10;;;;;;;;;4.00;2.00;;;;;;;;5043371;28;61831;-79
2022/09/04 00:55:38;;;;;;;;;6.75;5.50;;;;;;;;5044171;28;61831;-80
2022/09/04 00:58:16;;;;;;;;;6.75;5.50;;;;;;;;5060227;28;62127;-80
2022/09/04 01:00:45;;;;;;;;;6.50;6.00;;;;;;;;5060755;28;61840;-80
2022/09/04 01:03:23;;;;;;;;;6.00;6.00;;;;;;;;5060790;28;61878;-80
2022/09/04 01:06:14;;;;;;;;;3.00;1.00;;;;;;;;5061078;28;62263;-80
2022/09/04 01:08:42;;;;;;;;;6.00;5.25;;;;;;;;5036827;28;62149;-80
2022/09/04 01:11:13;;;;;;;;;5.00;5.00;;;;;;;;5060540;28;61910;-80
2022/09/04 01:13:42;;;;;;;;;5.50;4.00;;;;;;;;5060365;28;62091;-80
2022/09/04 01:16:18;;;;;;;;;5.00;5.00;;;;;;;;5073089;27;61955;-78
2022/09/04 01:18:55;;;;;;;;;6.50;5.75;;;;;;;;5101750;27;63858;-80
2022/09/04 01:21:39;;;;;;;;;5.67;5.00;;;;;;;;5102319;27;61852;-78
2022/09/04 01:24:23;;;;;;;;;5.25;5.25;;;;;;;;5102862;27;61717;-80
2022/09/04 01:26:48;;;;;;;;;8.75;7.00;;;;;;;;5102384;27;61904;-80
2022/09/04 01:29:22;;;;;;;;;3.75;3.75;;;;;;;;5102975;27;62913;-79
2022/09/04 01:32:00;;;;;;;;;5.25;4.25;;;;;;;;5103580;27;61851;-80
2022/09/04 01:34:33;;;;;;;;;3.00;3.00;;;;;;;;5103450;27;61796;-80
2022/09/04 01:37:04;;;;;;;;;5.33;3.00;;;;;;;;5103561;27;61865;-81
2022/09/04 01:39:30;;;;;;;;;3.00;3.00;;;;;;;;5102110;27;61853;-80
2022/09/04 01:42:04;;;;;;;;;4.25;4.00;;;;;;;;5103335;27;61762;-80
2022/09/04 01:44:32;;;;;;;;;6.00;5.50;;;;;;;;5101915;27;61974;-80
2022/09/04 01:46:58;;;;;;;;;5.75;3.00;;;;;;;;5103497;27;61808;-80
2022/09/04 01:49:26;;;;;;;;;3.25;3.00;;;;;;;;5102419;27;61937;-80
2022/09/04 01:52:06;;;;;;;;;3.00;3.00;;;;;;;;5103131;27;61872;-79
2022/09/04 01:54:34;;;;;;;;;3.00;3.00;;;;;;;;5102550;27;62195;-80
2022/09/04 01:57:06;;;;;;;;;2.50;2.00;;;;;;;;5102549;27;62538;-80
2022/09/04 01:59:37;;;;;;;;;1.00;1.00;;;;;;;;5102479;27;61888;-80
2022/09/04 02:02:05;;;;;;;;;3.00;3.00;;;;;;;;5102923;27;62114;-80
2022/09/04 02:04:43;;;;;;;;;3.00;3.00;;;;;;;;5103079;27;62067;-80
2022/09/04 02:07:18;;;;;;;;;3.00;3.00;;;;;;;;5103278;27;61686;-80
2022/09/04 02:09:43;;;;;;;;;4.00;3.00;;;;;;;;5101905;27;63039;-80
2022/09/04 02:12:34;;;;;;;;;2.75;2.75;;;;;;;;5102618;27;62027;-80
2022/09/04 02:14:59;;;;;;;;;2.00;2.00;;;;;;;;5079599;28;62208;-80
2022/09/04 02:17:31;;;;;;;;;4.00;2.00;;;;;;;;5080108;28;62061;-80
2022/09/04 02:20:15;;;;;;;;;4.75;3.00;;;;;;;;5061975;28;64482;-80
2022/09/04 02:22:42;;;;;;;;;3.25;3.25;;;;;;;;5096499;27;62157;-80
2022/09/04 02:25:25;;;;;;;;;3.00;3.00;;;;;;;;5078974;28;61922;-80
2022/09/04 02:27:51;;;;;;;;;2.00;2.00;;;;;;;;5062899;28;62008;-79
2022/09/04 02:30:17;;;;;;;;;4.00;3.00;;;;;;;;5078916;28;61982;-80
2022/09/04 02:32:55;;;;;;;;;4.00;4.00;;;;;;;;5079508;28;61863;-80
2022/09/04 02:35:33;;;;;;;;;2.00;2.00;;;;;;;;5079595;28;61822;-80
2022/09/04 02:38:04;;;;;;;;;2.00;1.00;;;;;;;;5096054;27;62041;-79
2022/09/04 02:40:41;;;;;;;;;4.25;4.25;;;;;;;;5078957;28;62853;-80
2022/09/04 02:43:13;;;;;;;;;3.25;2.00;;;;;;;;5079385;28;61807;-80
2022/09/04 02:46:10;;;;;;;;;2.50;2.50;;;;;;;;5079831;28;61920;-80
2022/09/04 02:48:56;;;;;;;;;2.00;1.75;;;;;;;;4999299;28;61801;-80
2022/09/04 02:51:34;;;;;;;;;0.00;0.00;;;;;;;;5007210;28;61948;-80
2022/09/04 02:54:18;;;;;;;;;3.00;3.00;;;;;;;;5038505;28;62089;-80
2022/09/04 02:56:49;;;;;;;;;4.50;3.00;;;;;;;;5039154;28;62003;-80
2022/09/04 02:59:14;;;;;;;;;3.75;3.75;;;;;;;;5039057;28;62313;-80
2022/09/04 03:01:59;;;;;;;;;4.00;2.75;;;;;;;;5038588;28;63524;-80
2022/09/04 03:04:24;;;;;;;;;4.00;2.67;;;;;;;;5038691;28;62126;-80
2022/09/04 03:06:52;;;;;;;;;5.25;2.75;;;;;;;;5039077;28;62032;-80
2022/09/04 03:09:36;;;;;;;;;4.25;2.00;;;;;;;;5042360;28;61915;-80
2022/09/04 03:12:25;;;;;;;;;3.25;2.25;;;;;;;;5041502;28;64733;-80
2022/09/04 03:15:28;;;;;;;;;4.00;2.50;;;;;;;;5042122;28;61791;-80
2022/09/04 03:17:54;;;;;;;;;4.00;3.00;;;;;;;;4982767;28;61980;-79
2022/09/04 03:20:22;;;;;;;;;2.50;2.50;;;;;;;;4982795;28;62297;-79
2022/09/04 03:23:00;;;;;;;;;3.00;3.00;;;;;;;;4982285;28;61950;-80
2022/09/04 03:25:58;;;;;;;;;4.25;3.00;;;;;;;;5044086;28;62181;-80
2022/09/04 03:28:23;;;;;;;;;3.00;3.00;;;;;;;;4965899;28;61791;-80
2022/09/04 03:30:49;;;;;;;;;7.50;4.00;;;;;;;;4982832;28;62074;-81
2022/09/04 03:33:23;;;;;;;;;2.50;2.50;;;;;;;;4965473;28;65132;-80
2022/09/04 03:36:01;;;;;;;;;5.50;3.50;;;;;;;;4965657;28;62018;-80
2022/09/04 03:38:36;;;;;;;;;3.00;3.00;;;;;;;;4982317;28;61837;-80
2022/09/04 03:41:10;;;;;;;;;4.75;3.00;;;;;;;;4982760;28;62025;-80
2022/09/04 03:43:42;;;;;;;;;4.00;3.25;;;;;;;;4981386;28;63750;-80
2022/09/04 03:46:13;;;;;;;;;3.25;2.25;;;;;;;;4982595;28;62228;-80
2022/09/04 03:48:59;;;;;;;;;4.50;3.50;;;;;;;;4991518;28;62098;-80
2022/09/04 03:51:27;;;;;;;;;2.75;2.75;;;;;;;;4984714;28;61898;-80
2022/09/04 03:54:15;;;;;;;;;2.50;2.50;;;;;;;;5000800;28;63040;-80
2022/09/04 03:56:43;;;;;;;;;2.00;2.00;;;;;;;;4985213;28;61909;-80
2022/09/04 03:59:11;;;;;;;;;3.00;2.50;;;;;;;;5002151;28;61927;-80
2022/09/04 04:01:40;;;;;;;;;2.75;2.75;;;;;;;;5002069;28;62169;-80
2022/09/04 04:04:09;;;;;;;;;4.00;3.00;;;;;;;;5044456;28;64509;-80
2022/09/04 04:07:01;;;;;;;;;2.25;2.25;;;;;;;;5083006;28;61990;-80
2022/09/04 04:09:33;;;;;;;;;4.00;4.00;;;;;;;;5116773;27;61723;-80
2022/09/04 04:12:02;;;;;;;;;2.50;1.00;;;;;;;;5083403;28;62278;-80
2022/09/04 04:14:51;;;;;;;;;4.75;2.75;;;;;;;;5083538;28;61901;-80
2022/09/04 04:17:23;;;;;;;;;2.75;2.75;;;;;;;;5084322;28;61994;-80
2022/09/04 04:20:08;;;;;;;;;2.75;2.75;;;;;;;;5083464;28;61723;-79
2022/09/04 04:22:36;;;;;;;;;2.75;2.75;;;;;;;;5082832;28;62226;-79
2022/09/04 04:25:04;;;;;;;;;2.25;2.25;;;;;;;;5083307;28;62257;-79
2022/09/04 04:27:32;;;;;;;;;3.00;3.00;;;;;;;;5083828;28;61729;-80
2022/09/04 04:29:57;;;;;;;;;2.75;2.75;;;;;;;;5082367;28;62221;-79
2022/09/04 04:32:25;;;;;;;;;3.75;2.25;;;;;;;;5084283;28;61974;-79
2022/09/04 04:35:17;;;;;;;;;4.50;3.00;;;;;;;;5081513;28;65050;-80
2022/09/04 04:37:49;;;;;;;;;3.25;3.25;;;;;;;;5061083;28;62014;-80
2022/09/04 04:40:26;;;;;;;;;2.00;2.00;;;;;;;;5060861;28;62231;-79
2022/09/04 04:43:07;;;;;;;;;2.00;2.00;;;;;;;;5061011;28;62010;-79
2022/09/04 04:45:51;;;;;;;;;2.00;2.00;;;;;;;;5060406;28;62162;-80
2022/09/04 04:48:16;;;;;;;;;2.50;1.00;;;;;;;;5050904;28;62167;-79
2022/09/04 04:51:00;;;;;;;;;4.00;4.00;;;;;;;;5081171;28;62094;-79
2022/09/04 04:53:44;;;;;;;;;3.00;2.25;;;;;;;;5080894;28;61883;-79
2022/09/04 04:56:21;;;;;;;;;2.50;2.50;;;;;;;;5080465;28;62103;-80
2022/09/04 04:58:47;;;;;;;;;5.00;3.25;;;;;;;;5063900;28;62557;-80
2022/09/04 05:01:21;;;;;;;;;4.25;4.25;;;;;;;;5081461;28;62273;-80
2022/09/04 05:04:01;;;;;;;;;4.25;3.25;;;;;;;;5063953;28;61773;-80
2022/09/04 05:06:39;;;;;;;;;4.00;4.00;;;;;;;;5063592;28;63925;-80
2022/09/04 05:09:15;;;;;;;;;3.50;3.00;;;;;;;;5080842;28;62370;-80
2022/09/04 05:11:40;;;;;;;;;5.75;5.25;;;;;;;;5081090;28;61846;-80
2022/09/04 05:14:41;;;;;;;;;4.50;3.25;;;;;;;;5087755;27;61800;-80
2022/09/04 05:17:25;;;;;;;;;5.25;4.00;;;;;;;;5036387;28;63293;-80
2022/09/04 05:20:02;;;;;;;;;3.00;3.00;;;;;;;;5041410;28;62349;-80
2022/09/04 05:22:37;;;;;;;;;4.00;4.00;;;;;;;;5058338;28;62147;-80
2022/09/04 05:25:12;;;;;;;;;4.00;4.00;;;;;;;;5042747;28;62018;-80
2022/09/04 05:27:47;;;;;;;;;4.00;4.00;;;;;;;;5042484;28;63829;-80
2022/09/04 05:30:18;;;;;;;;;3.75;3.75;;;;;;;;5059696;28;61991;-80
2022/09/04 05:32:44;;;;;;;;;6.25;4.00;;;;;;;;5056531;28;62055;-80
2022/09/04 05:35:19;;;;;;;;;3.00;3.00;;;;;;;;5043726;28;62252;-82
2022/09/04 05:37:53;;;;;;;;;8.00;4.25;;;;;;;;5059965;28;62105;-81
2022/09/04 05:40:26;;;;;;;;;6.00;4.25;;;;;;;;5060235;28;62406;-80
2022/09/04 05:43:04;;;;;;;;;5.25;4.25;;;;;;;;5043409;28;62031;-81
2022/09/04 05:45:29;;;;;;;;;6.00;4.25;;;;;;;;5060247;28;61972;-81
2022/09/04 05:47:54;;;;;;;;;3.00;3.00;;;;;;;;5042471;28;64741;-81
2022/09/04 05:50:35;;;;;;;;;4.25;4.25;;;;;;;;5051060;27;61798;-81
2022/09/04 05:53:19;;;;;;;;;6.25;5.50;;;;;;;;5101519;27;61810;-80
2022/09/04 05:55:47;;;;;;;;;4.25;4.25;;;;;;;;5103619;27;61935;-81
2022/09/04 05:58:16;;;;;;;;;4.75;3.25;;;;;;;;5101316;27;63689;-81
2022/09/04 06:01:00;;;;;;;;;5.00;4.25;;;;;;;;5103116;27;61971;-81
2022/09/04 06:03:44;;;;;;;;;5.00;4.00;;;;;;;;5102992;27;61875;-79
2022/09/04 06:06:22;;;;;;;;;5.50;3.00;;;;;;;;5101809;27;61667;-81
2022/09/04 06:08:47;;;;;;;;;6.00;3.50;;;;;;;;5102384;27;61842;-80
2022/09/04 06:11:21;;;;;;;;;5.00;5.00;;;;;;;;5103156;27;61724;-81
2022/09/04 06:13:49;;;;;;;;;3.00;2.75;;;;;;;;5103342;27;61863;-81
2022/09/04 06:16:32;;;;;;;;;5.25;3.00;;;;;;;;5102515;27;61936;-81
2022/09/04 06:18:58;;;;;;;;;2.75;2.75;;;;;;;;5101051;27;64932;-79
2022/09/04 06:21:34;;;;;;;;;4.00;4.00;;;;;;;;5103448;27;61971;-82
2022/09/04 06:24:09;;;;;;;;;4.25;4.00;;;;;;;;5102454;27;61896;-81
2022/09/04 06:26:34;;;;;;;;;4.00;4.00;;;;;;;;5102039;27;61903;-81
2022/09/04 06:29:19;;;;;;;;;3.50;3.25;;;;;;;;5101368;27;61948;-83
2022/09/04 06:31:51;;;;;;;;;5.00;2.33;;;;;;;;5099050;27;62070;-84
2022/09/04 06:34:28;;;;;;;;;2.25;2.25;;;;;;;;5102016;27;62196;-85
2022/09/04 06:36:59;;;;;;;;;5.00;4.00;;;;;;;;5099744;27;61908;-83
2022/09/04 06:39:43;;;;;;;;;4.00;4.00;;;;;;;;5100146;27;64010;-86
2022/09/04 06:42:27;;;;;;;;;5.00;3.00;;;;;;;;5103013;27;61867;-85
2022/09/04 06:45:11;;;;;;;;;6.00;3.25;;;;;;;;5103774;27;62022;-86
2022/09/04 06:47:36;;;;;;;;;3.25;2.00;;;;;;;;5087821;27;62128;-84
2022/09/04 06:50:01;;;;;;;;;5.75;4.25;;;;;;;;5103427;27;63611;-82
2022/09/04 06:52:39;;;;;;;;;2.75;2.75;;;;;;;;5103836;27;61978;-82
2022/09/04 06:55:12;;;;;;;;;3.25;3.25;;;;;;;;5104204;27;61891;-82
2022/09/04 06:57:56;;;;;;;;;3.00;3.00;;;;;;;;5105667;27;61832;-82
2022/09/04 07:00:21;;;;;;;;;3.25;3.25;;;;;;;;5103635;27;63600;-81
2022/09/04 07:03:05;;;;;;;;;4.67;4.67;;;;;;;;5105668;27;62058;-81
2022/09/04 07:05:42;;;;;;;;;13.00;5.33;;;;;;;;5101523;27;62083;-82
2022/09/04 07:08:22;;;;;;;;;3.67;3.67;;;;;;;;5102327;27;62117;-79
2022/09/04 07:10:58;;;;;;;;;3.00;3.00;;;;;;;;5104174;27;64519;-82
2022/09/04 07:13:24;;;;;;;;;6.33;4.67;;;;;;;;5105190;27;62133;-81
2022/09/04 07:16:05;;;;;;;;;3.00;3.00;;;;;;;;5103622;27;61824;-81
2022/09/04 07:18:48;;;;;;;;;5.67;4.00;;;;;;;;5105999;27;61890;-81
2022/09/04 07:21:17;;;;;;;;;4.00;4.00;;;;;;;;5105293;27;61638;-81
2022/09/04 07:23:43;;;;;;;;;4.00;4.00;;;;;;;;5104888;27;61800;-83
2022/09/04 07:26:09;;;;;;;;;4.00;4.00;;;;;;;;5104442;27;61885;-83
2022/09/04 07:28:35;;;;;;;;;2.00;2.00;;;;;;;;5104839;27;61803;-82
2022/09/04 07:31:06;;;;;;;;;4.33;2.67;;;;;;;;5104826;27;62035;-83
2022/09/04 07:33:37;;;;;;;;;4.33;3.00;;;;;;;;5105158;27;62106;-84
2022/09/04 07:36:08;;;;;;;;;6.00;4.00;;;;;;;;5105586;27;61822;-82
2022/09/04 07:38:52;;;;;;;;;5.00;3.33;;;;;;;;5103521;27;61740;-82
2022/09/04 07:41:18;;;;;;;;;3.25;3.25;;;;;;;;5102821;27;62210;-81
2022/09/04 07:43:53;;;;;;;;;3.33;2.00;;;;;;;;5103541;27;61857;-81
2022/09/04 07:46:24;;;;;;;;;5.75;3.75;;;;;;;;5100779;27;61879;-82
2022/09/04 07:49:04;;;;;;;;;2.75;2.75;;;;;;;;5102172;27;61930;-81
2022/09/04 07:51:34;;;;;;;;;3.00;3.00;;;;;;;;5101136;27;64103;-83
2022/09/04 07:54:10;;;;;;;;;3.75;3.75;;;;;;;;5101881;27;61848;-80
2022/09/04 07:56:54;;;;;;;;;3.25;3.25;;;;;;;;5103420;27;61948;-81
2022/09/04 07:59:38;;;;;;;;;3.00;3.00;;;;;;;;5102641;27;61824;-81
2022/09/04 08:02:12;;;;;;;;;5.75;3.25;;;;;;;;5100316;27;63594;-81
2022/09/04 08:04:43;;;;;;;;;4.00;4.00;;;;;;;;5104721;27;61845;-82
2022/09/04 08:07:24;;;;;;;;;3.75;3.75;;;;;;;;5100273;27;61970;-80
2022/09/04 08:10:10;;;;;;;;;5.50;3.75;;;;;;;;5098822;27;61892;-81
2022/09/04 08:12:35;;;;;;;;;4.00;3.75;;;;;;;;5094975;27;65008;-83
2022/09/04 08:15:10;;;;;;;;;3.00;3.00;;;;;;;;5101266;27;62031;-83
2022/09/04 08:17:50;;;;;;;;;3.75;3.50;;;;;;;;5100654;27;61761;-83
2022/09/04 08:20:15;;;;;;;;;2.00;2.00;;;;;;;;5103534;27;61973;-82
2022/09/04 08:22:49;;;;;;;;;3.25;3.25;;;;;;;;5096362;27;63419;-81
2022/09/04 08:25:20;;;;;;;;;3.00;3.00;;;;;;;;5101958;27;62019;-82
2022/09/04 08:27:53;;;;;;;;;4.00;3.00;;;;;;;;5100756;27;61693;-82
2022/09/04 08:30:19;;;;;;;;;4.75;3.25;;;;;;;;5103369;27;61848;-81
2022/09/04 08:32:57;;;;;;;;;3.75;3.00;;;;;;;;5100715;27;63873;-81
2022/09/04 08:35:25;;;;;;;;;5.00;3.00;;;;;;;;5099641;27;61766;-84
2022/09/04 08:37:53;;;;;;;;;6.00;4.00;;;;;;;;5101453;27;62246;-82
2022/09/04 08:40:37;;;;;;;;;7.25;5.00;;;;;;;;5102221;27;61982;-81
2022/09/04 08:43:02;;;;;;;;;4.00;3.50;;;;;;;;5127081;27;64861;-81
2022/09/04 08:45:43;;;;;;;;;5.00;5.00;;;;;;;;5100762;27;61959;-82
2022/09/04 08:48:31;;;;;;;;;4.00;4.00;;;;;;;;5097295;27;62023;-81
2022/09/04 08:51:11;;;;;;;;;2.25;2.25;;;;;;;;5099962;27;62089;-80
2022/09/04 08:53:55;;;;;;;;;4.00;4.00;;;;;;;;5099212;27;62290;-80
2022/09/04 08:56:39;;;;;;;;;5.00;4.00;;;;;;;;5097974;27;62176;-80
2022/09/04 08:59:14;;;;;;;;;3.00;2.00;;;;;;;;5098274;27;61862;-80
2022/09/04 09:01:48;;;;;;;;;2.00;2.00;;;;;;;;5100425;27;61810;-81
2022/09/04 09:04:26;;;;;;;;;3.75;2.75;;;;;;;;5097192;27;62099;-81
2022/09/04 09:06:52;;;;;;;;;4.00;2.33;;;;;;;;5100512;27;62087;-82
2022/09/04 09:09:44;;;;;;;;;2.00;2.00;;;;;;;;5097731;27;62024;-76
2022/09/04 09:12:28;;;;;;;;;1.67;1.67;;;;;;;;5098949;27;61729;-76
2022/09/04 09:14:59;;;;;;;;;5.00;2.00;;;;;;;;5099304;27;61841;-76
2022/09/04 09:17:37;;;;;;;;;2.33;2.33;;;;;;;;5097549;27;62055;-76
2022/09/04 09:20:34;;;;;;;;;7.33;3.00;;;;;;;;5100985;27;61973;-75
2022/09/04 09:23:20;;;;;;;;;4.33;1.67;;;;;;;;5085459;27;61882;-76
2022/09/04 09:25:51;;;;;;;;;3.00;3.00;;;;;;;;5098157;27;62223;-76
2022/09/04 09:28:25;;;;;;;;;3.67;2.67;;;;;;;;5100834;27;61765;-77
2022/09/04 09:31:04;;;;;;;;;2.00;2.00;;;;;;;;5102578;27;62007;-76
2022/09/04 09:33:35;;;;;;;;;0.67;0.67;;;;;;;;5099640;27;62682;-76
2022/09/04 09:36:14;;;;;;;;;3.00;3.00;;;;;;;;5097492;27;63952;-76
2022/09/04 09:38:58;;;;;;;;;2.00;1.67;;;;;;;;5100124;27;61685;-76
2022/09/04 09:41:42;;;;;;;;;2.00;2.00;;;;;;;;5098812;27;61874;-75
2022/09/04 09:44:26;;;;;;;;;1.33;1.33;;;;;;;;5125434;27;61925;-76
2022/09/04 09:46:57;;;;;;;;;1.67;1.67;;;;;;;;5130325;27;63717;-75
2022/09/04 09:49:22;;;;;;;;;4.00;2.00;;;;;;;;5101965;27;61942;-77
2022/09/04 09:51:53;;;;;;;;;2.00;2.00;;;;;;;;5100321;27;61889;-75
2022/09/04 09:54:39;;;;;;;;;70.50;38.25;;;;;;;;5100702;27;62076;-76
2022/09/04 09:57:23;;;;;;;;;2.00;2.00;;;;;;;;5098817;27;63159;-76
2022/09/04 10:00:06;;;;;;;;;2.67;1.67;;;;;;;;5101055;27;62094;-76
2022/09/04 10:03:03;;;;;;;;;2.00;2.00;;;;;;;;5097571;27;61986;-76
2022/09/04 10:05:47;;;;;;;;;3.00;1.33;;;;;;;;5096554;27;62205;-76
2022/09/04 10:08:26;;;;;;;;;2.00;2.00;;;;;;;;5095445;27;63818;-76
2022/09/04 10:11:04;;;;;;;;;74.25;46.50;;;;;;;;5096519;27;61717;-76
2022/09/04 10:13:44;;;;;;;;;11.33;4.33;;;;;;;;5100267;27;62100;-76
2022/09/04 10:16:25;;;;;;;;;2.67;2.67;;;;;;;;5101122;27;61764;-76
2022/09/04 10:19:03;;;;;;;;;1.67;1.00;;;;;;;;5100646;27;61964;-76
2022/09/04 10:21:35;;;;;;;;;1.00;1.00;;;;;;;;5100397;27;62073;-76
2022/09/04 10:24:05;;;;;;;;;2.33;2.33;;;;;;;;5101377;27;61743;-76
2022/09/04 10:26:38;;;;;;;;;2.67;2.33;;;;;;;;5098730;27;62191;-76
2022/09/04 10:29:04;;;;;;;;;21.75;10.75;;;;;;;;5095873;27;64530;-76
2022/09/04 10:31:41;;;;;;;;;3.67;2.00;;;;;;;;5098247;27;61806;-75
2022/09/04 10:34:11;;;;;;;;;1.67;1.67;;;;;;;;5097892;27;62926;-76
2022/09/04 10:36:43;;;;;;;;;6.00;4.00;;;;;;;;5101654;27;61818;-76
2022/09/04 10:42:05;;;;;;;;;1.33;1.33;;;;;;;;5098931;27;61733;-76
2022/09/04 10:44:40;;;;;;;;;5.00;5.00;;;;;;;;5100241;27;61994;-76
2022/09/04 10:47:14;;;;;;;;;2.00;1.00;;;;;;;;5098331;27;61826;-75
2022/09/04 10:50:10;;;;;;;;;1.67;1.67;;;;;;;;5099591;27;63573;-75
2022/09/04 10:52:54;;;;;;;;;2.00;2.00;;;;;;;;5099728;27;61846;-75
2022/09/04 10:55:20;;;;;;;;;2.00;2.00;;;;;;;;5096449;27;62451;-76
2022/09/04 10:57:46;;;;;;;;;4.33;2.33;;;;;;;;5101476;27;61892;-76
2022/09/04 11:00:15;;;;;;;;;2.00;1.00;;;;;;;;5098843;27;64659;-76
2022/09/04 11:02:48;;;;;;;;;3.00;3.00;;;;;;;;5099787;27;61997;-76
2022/09/04 11:05:33;;;;;;;;;10.67;8.33;;;;;;;;5100453;27;61943;-76
2022/09/04 11:08:11;;;;;;;;;2.00;2.00;;;;;;;;5100437;27;62076;-75
2022/09/04 11:10:56;;;;;;;;;4.33;2.00;;;;;;;;5099349;27;63517;-75
2022/09/04 11:13:21;;;;;;;;;1.67;1.67;;;;;;;;5101665;27;61869;-76
2022/09/04 11:15:53;;;;;;;;;3.00;3.00;;;;;;;;5097866;27;62048;-75
2022/09/04 11:18:37;;;;;;;;;3.33;1.67;;;;;;;;5098535;27;61797;-74
2022/09/04 11:21:24;;;;;;;;;3.67;2.00;;;;;;;;5096213;27;63734;-75
2022/09/04 11:24:08;;;;;;;;;2.00;2.00;;;;;;;;5094702;27;62574;-74
2022/09/04 11:26:38;;;;;;;;;2.00;2.00;;;;;;;;5097252;27;61940;-75
2022/09/04 11:29:03;;;;;;;;;3.67;3.00;;;;;;;;5099815;27;61846;-77
2022/09/04 11:31:47;;;;;;;;;4.67;2.67;;;;;;;;5103489;27;61634;-76
2022/09/04 11:34:19;;;;;;;;;4.00;4.00;;;;;;;;5103717;27;62286;-76
2022/09/04 11:36:53;;;;;;;;;4.33;4.00;;;;;;;;5103888;27;61706;-76
2022/09/04 11:39:37;;;;;;;;;6.00;5.00;;;;;;;;5105304;27;62040;-76
2022/09/04 11:42:11;;;;;;;;;2.00;2.00;;;;;;;;5104689;27;62057;-76
2022/09/04 11:44:36;;;;;;;;;3.00;2.33;;;;;;;;5104852;27;61859;-75
2022/09/04 11:47:11;;;;;;;;;3.00;3.00;;;;;;;;5103957;27;61939;-75
2022/09/04 11:49:40;;;;;;;;;2.67;2.67;;;;;;;;5103606;27;61934;-76
2022/09/04 11:52:13;;;;;;;;;3.00;2.33;;;;;;;;5104337;27;62812;-75
2022/09/04 11:54:41;;;;;;;;;6.67;3.33;;;;;;;;5104121;27;61766;-76
2022/09/04 11:57:25;;;;;;;;;42.00;33.75;;;;;;;;5103668;27;62170;-76
2022/09/04 12:00:04;;;;;;;;;3.67;2.33;;;;;;;;5104991;27;62135;-75
2022/09/04 12:02:49;;;;;;;;;2.33;2.33;;;;;;;;5104352;27;61873;-75
2022/09/04 12:05:17;;;;;;;;;4.00;2.67;;;;;;;;5103483;27;61984;-75
2022/09/04 12:07:49;;;;;;;;;3.67;2.67;;;;;;;;5101741;27;62240;-76
2022/09/04 12:10:33;;;;;;;;;3.67;2.67;;;;;;;;5101961;27;61872;-76
2022/09/04 12:12:59;;;;;;;;;2.67;2.67;;;;;;;;5099621;27;61961;-75
2022/09/04 12:15:54;;;;;;;;;2.67;2.67;;;;;;;;5100090;27;61992;-75
2022/09/04 12:18:26;;;;;;;;;2.00;2.00;;;;;;;;5100779;27;62279;-76
2022/09/04 12:21:11;;;;;;;;;4.00;2.67;;;;;;;;5098753;27;62156;-75
2022/09/04 12:23:42;;;;;;;;;3.33;3.33;;;;;;;;5098544;27;62772;-75
2022/09/04 12:26:16;;;;;;;;;3.33;2.33;;;;;;;;5099364;27;61927;-76
2022/09/04 12:29:00;;;;;;;;;4.00;4.00;;;;;;;;5099961;27;61940;-76
2022/09/04 12:31:50;;;;;;;;;2.00;2.00;;;;;;;;5101656;27;61785;-75
2022/09/04 12:34:15;;;;;;;;;2.67;2.67;;;;;;;;5103212;27;61971;-75
2022/09/04 12:36:41;;;;;;;;;3.00;2.00;;;;;;;;5103036;27;61877;-75
2022/09/04 12:39:21;;;;;;;;;2.00;2.00;;;;;;;;5103044;27;62113;-76
2022/09/04 12:41:48;;;;;;;;;4.00;4.00;;;;;;;;5101626;27;62264;-76
2022/09/04 12:44:28;;;;;;;;;6.67;4.00;;;;;;;;5101195;27;62641;-82
2022/09/04 12:47:00;;;;;;;;;2.33;1.00;;;;;;;;5099871;27;61859;-76
2022/09/04 12:49:29;;;;;;;;;2.00;2.00;;;;;;;;5099462;27;61844;-76
2022/09/04 12:52:18;;;;;;;;;2.00;1.67;;;;;;;;5100575;27;62084;-77
2022/09/04 12:55:02;;;;;;;;;4.33;3.00;;;;;;;;5100538;27;61938;-77
2022/09/04 12:57:31;;;;;;;;;2.33;2.00;;;;;;;;5100454;27;62265;-78
2022/09/04 13:00:15;;;;;;;;;2.00;2.00;;;;;;;;5101587;27;61799;-77
2022/09/04 13:02:43;;;;;;;;;2.00;2.00;;;;;;;;5102185;27;61915;-77
2022/09/04 13:05:27;;;;;;;;;3.67;3.67;;;;;;;;5101121;27;64559;-75
2022/09/04 13:08:08;;;;;;;;;2.00;2.00;;;;;;;;5101955;27;61907;-76
2022/09/04 13:10:33;;;;;;;;;2.33;1.00;;;;;;;;5100828;27;62168;-77
2022/09/04 13:13:16;;;;;;;;;3.00;3.00;;;;;;;;5102267;27;62236;-76
2022/09/04 13:15:50;;;;;;;;;2.00;2.00;;;;;;;;5100012;27;62967;-77
2022/09/04 13:18:33;;;;;;;;;3.00;3.00;;;;;;;;5101856;27;61863;-75
2022/09/04 13:21:25;;;;;;;;;2.00;2.00;;;;;;;;5100634;27;61959;-76
2022/09/04 13:24:00;;;;;;;;;5.00;3.00;;;;;;;;5102073;27;61920;-79
2022/09/04 13:26:28;;;;;;;;;2.33;2.33;;;;;;;;5101832;27;63205;-76
2022/09/04 13:29:15;;;;;;;;;4.00;3.00;;;;;;;;5103567;27;61893;-76
2022/09/04 13:31:59;;;;;;;;;2.67;2.67;;;;;;;;5103720;27;61761;-79
2022/09/04 13:34:31;;;;;;;;;10.33;8.33;;;;;;;;5102367;27;61809;-76
2022/09/04 13:37:03;;;;;;;;;5.67;4.33;;;;;;;;5101516;27;63893;-77
2022/09/04 13:39:47;;;;;;;;;5.00;2.67;;;;;;;;5101811;27;61914;-76
2022/09/04 13:42:13;;;;;;;;;3.00;3.00;;;;;;;;5103516;27;61739;-78
2022/09/04 13:44:49;;;;;;;;;4.00;4.00;;;;;;;;5103367;27;61946;-77
2022/09/04 13:47:19;;;;;;;;;3.00;2.00;;;;;;;;5102835;27;62817;-77
2022/09/04 13:49:46;;;;;;;;;2.67;2.00;;;;;;;;5103400;27;61856;-79
2022/09/04 13:52:32;;;;;;;;;2.00;2.00;;;;;;;;5101210;27;62054;-78
2022/09/04 13:55:01;;;;;;;;;1.33;1.33;;;;;;;;5100255;27;61923;-78
2022/09/04 13:57:29;;;;;;;;;3.33;1.67;;;;;;;;5099505;27;63764;-78
2022/09/04 13:59:58;;;;;;;;;2.00;2.00;;;;;;;;5102026;27;61862;-78
2022/09/04 14:02:25;;;;;;;;;1.67;1.67;;;;;;;;5102931;27;61860;-78
2022/09/04 14:04:54;;;;;;;;;2.33;2.33;;;;;;;;5101632;27;62154;-78
2022/09/04 14:07:25;;;;;;;;;4.00;1.67;;;;;;;;5101701;27;62730;-80
2022/09/04 14:09:53;;;;;;;;;2.00;2.00;;;;;;;;5102883;27;62041;-79
2022/09/04 14:12:21;;;;;;;;;1.67;1.67;;;;;;;;5100865;27;62259;-79
2022/09/04 14:15:06;;;;;;;;;2.00;2.00;;;;;;;;5101208;27;62011;-79
2022/09/04 14:17:37;;;;;;;;;2.33;1.67;;;;;;;;5109747;27;63751;-79
2022/09/04 14:20:22;;;;;;;;;1.67;1.67;;;;;;;;5110664;27;62055;-81
2022/09/04 14:22:59;;;;;;;;;2.33;2.33;;;;;;;;5115312;27;62206;-81
2022/09/04 14:25:29;;;;;;;;;0.67;0.67;;;;;;;;5112638;27;62845;-82
2022/09/04 14:28:03;;;;;;;;;2.67;1.33;;;;;;;;5101858;27;64064;-80
2022/09/04 14:30:33;;;;;;;;;2.67;1.67;;;;;;;;5105107;27;62073;-78
2022/09/04 14:33:04;;;;;;;;;1.67;1.67;;;;;;;;5107020;27;61804;-78
2022/09/04 14:35:34;;;;;;;;;2.00;2.00;;;;;;;;5101975;27;61821;-81
2022/09/04 14:38:17;;;;;;;;;1.67;1.67;;;;;;;;5101480;27;63029;-82
2022/09/04 14:41:04;;;;;;;;;2.00;1.67;;;;;;;;5101956;27;61899;-78
2022/09/04 14:43:30;;;;;;;;;2.00;1.00;;;;;;;;5100712;27;62170;-78
2022/09/04 14:46:07;;;;;;;;;2.00;1.00;;;;;;;;5102415;27;61806;-78
2022/09/04 14:48:39;;;;;;;;;1.67;1.67;;;;;;;;5100299;27;63617;-78
2022/09/04 14:51:27;;;;;;;;;3.67;2.00;;;;;;;;5102218;27;61935;-76
2022/09/04 14:53:57;;;;;;;;;1.67;1.67;;;;;;;;5098390;27;61792;-78
2022/09/04 14:56:44;;;;;;;;;1.00;1.00;;;;;;;;5102091;27;61669;-79
2022/09/04 14:59:18;;;;;;;;;2.67;1.67;;;;;;;;5100013;27;63527;-76
2022/09/04 15:02:03;;;;;;;;;1.00;1.00;;;;;;;;5101050;27;61760;-77
2022/09/04 15:04:35;;;;;;;;;0.67;0.67;;;;;;;;5103704;27;61896;-79
2022/09/04 15:07:18;;;;;;;;;1.67;1.67;;;;;;;;5112473;27;61808;-75
2022/09/04 15:09:45;;;;;;;;;1.67;1.00;;;;;;;;5117446;27;64877;-76
2022/09/04 15:12:14;;;;;;;;;2.67;1.67;;;;;;;;5102958;27;61932;-76
2022/09/04 15:14:42;;;;;;;;;2.33;1.67;;;;;;;;5104976;27;61655;-76
2022/09/04 15:17:13;;;;;;;;;1.00;0.67;;;;;;;;5103990;27;61803;-75
2022/09/04 15:20:00;;;;;;;;;2.00;0.00;;;;;;;;5104289;27;62692;-78
2022/09/04 15:22:38;;;;;;;;;1.00;1.00;;;;;;;;5104138;27;62002;-77
2022/09/04 15:25:07;;;;;;;;;3.00;2.00;;;;;;;;5103021;27;61755;-78
2022/09/04 15:28:04;;;;;;;;;1.67;1.67;;;;;;;;5104011;27;61812;-79
2022/09/04 15:30:31;;;;;;;;;1.00;1.00;;;;;;;;5044179;28;65179;-78
2022/09/04 15:33:05;;;;;;;;;2.33;1.67;;;;;;;;5057329;28;62317;-77
2022/09/04 15:35:31;;;;;;;;;1.00;1.00;;;;;;;;5056291;28;62156;-76